createdAt,value
2018-01-24T00:00:39.749Z,8.90
2018-01-24T00:03:07.244Z,8.90
2018-01-24T00:05:34.791Z,8.90
2018-01-24T00:08:02.300Z,8.90
2018-01-24T00:10:30.567Z,8.90
2018-01-24T00:12:58.862Z,9.00
2018-01-24T00:15:27.135Z,9.00
2018-01-24T00:17:55.543Z,9.00
2018-01-24T00:20:23.044Z,9.00
2018-01-24T00:22:50.551Z,9.00
2018-01-24T00:25:18.127Z,9.00
2018-01-24T00:27:45.632Z,9.00
2018-01-24T00:30:13.954Z,9.00
2018-01-24T00:32:41.499Z,9.00
2018-01-24T00:35:09.039Z,9.10
2018-01-24T00:37:37.304Z,9.10
2018-01-24T00:40:04.806Z,9.10
2018-01-24T00:42:32.365Z,9.10
2018-01-24T00:44:59.872Z,9.10
2018-01-24T00:47:27.396Z,9.00
2018-01-24T00:49:54.912Z,9.10
2018-01-24T00:52:22.440Z,9.10
2018-01-24T00:54:49.961Z,9.10
2018-01-24T00:57:17.485Z,9.10
2018-01-24T00:59:45.748Z,9.20
2018-01-24T01:02:13.292Z,9.20
2018-01-24T01:04:40.776Z,9.20
2018-01-24T01:07:09.043Z,9.20
2018-01-24T01:09:36.551Z,9.10
2018-01-24T01:12:04.070Z,9.10
2018-01-24T01:14:32.352Z,9.10
2018-01-24T01:16:59.875Z,9.10
2018-01-24T01:19:27.423Z,9.10
2018-01-24T01:21:54.959Z,9.10
2018-01-24T01:24:22.477Z,9.20
2018-01-24T01:26:50.734Z,9.20
2018-01-24T01:29:18.255Z,9.20
2018-01-24T01:31:45.778Z,9.20
2018-01-24T01:34:14.072Z,9.30
2018-01-24T01:36:41.594Z,9.30
2018-01-24T01:39:09.109Z,9.30
2018-01-24T01:41:36.598Z,9.30
2018-01-24T01:44:04.119Z,9.30
2018-01-24T01:46:31.655Z,9.30
2018-01-24T01:48:59.147Z,9.30
2018-01-24T01:51:26.684Z,9.30
2018-01-24T01:53:54.969Z,9.30
2018-01-24T01:56:23.252Z,9.30
2018-01-24T01:58:50.779Z,9.20
2018-01-24T02:01:18.280Z,9.30
2018-01-24T02:03:45.788Z,9.20
2018-01-24T02:06:14.079Z,9.20
2018-01-24T02:08:41.577Z,9.20
2018-01-24T02:11:09.135Z,9.30
2018-01-24T02:13:36.633Z,9.20
2018-01-24T02:16:04.916Z,9.20
2018-01-24T02:18:33.191Z,9.20
2018-01-24T02:21:01.460Z,9.20
2018-01-24T02:23:29.739Z,9.20
2018-01-24T02:25:58.055Z,9.10
2018-01-24T02:28:25.581Z,9.10
2018-01-24T02:30:53.868Z,9.10
2018-01-24T02:33:21.393Z,9.10
2018-01-24T02:35:48.901Z,9.10
2018-01-24T02:41:18.161Z,9.10
2018-01-24T02:43:45.659Z,9.10
2018-01-24T02:46:13.195Z,9.20
2018-01-24T02:48:41.455Z,9.20
2018-01-24T02:51:08.992Z,9.20
2018-01-24T02:53:36.548Z,9.20
2018-01-24T02:56:04.059Z,9.30
2018-01-24T02:58:32.320Z,9.20
2018-01-24T03:01:00.619Z,9.30
2018-01-24T03:03:28.198Z,9.30
2018-01-24T03:05:55.729Z,9.20
2018-01-24T03:08:24.000Z,9.20
2018-01-24T03:10:52.295Z,9.20
2018-01-24T03:13:19.820Z,9.20
2018-01-24T03:15:47.319Z,9.20
2018-01-24T03:18:14.836Z,9.20
2018-01-24T03:20:42.330Z,9.20
2018-01-24T03:23:09.846Z,9.20
2018-01-24T03:25:37.402Z,9.30
2018-01-24T03:28:04.934Z,9.30
2018-01-24T03:30:32.446Z,9.30
2018-01-24T03:32:59.983Z,9.30
2018-01-24T03:35:27.512Z,9.30
2018-01-24T03:37:55.014Z,9.30
2018-01-24T03:40:23.284Z,9.30
2018-01-24T03:42:51.582Z,9.20
2018-01-24T03:45:19.889Z,9.20
2018-01-24T03:47:47.384Z,9.20
2018-01-24T03:50:14.883Z,9.30
2018-01-24T03:52:42.415Z,9.30
2018-01-24T03:55:10.703Z,9.40
2018-01-24T03:57:38.986Z,9.30
2018-01-24T04:00:07.273Z,9.30
2018-01-24T04:02:34.800Z,9.30
2018-01-24T04:05:03.071Z,9.30
2018-01-24T04:07:30.597Z,9.30
2018-01-24T04:09:58.093Z,9.30
2018-01-24T04:12:25.619Z,9.20
2018-01-24T04:14:53.134Z,9.20
2018-01-24T04:17:20.719Z,9.30
2018-01-24T04:19:48.249Z,9.30
2018-01-24T04:22:15.739Z,9.30
2018-01-24T04:24:43.264Z,9.30
2018-01-24T04:27:11.572Z,9.20
2018-01-24T04:29:39.075Z,9.20
2018-01-24T04:32:06.617Z,9.10
2018-01-24T04:34:34.151Z,9.20
2018-01-24T04:37:01.648Z,9.10
2018-01-24T04:39:29.173Z,9.10
2018-01-24T04:41:56.723Z,9.10
2018-01-24T04:44:24.249Z,9.10
2018-01-24T04:46:52.527Z,9.10
2018-01-24T04:49:20.805Z,9.10
2018-01-24T04:51:48.324Z,9.10
2018-01-24T04:54:15.822Z,9.20
2018-01-24T04:56:43.364Z,9.20
2018-01-24T04:59:11.631Z,9.20
2018-01-24T05:01:39.143Z,9.20
2018-01-24T05:04:06.672Z,9.20
2018-01-24T05:06:34.993Z,9.20
2018-01-24T05:09:02.542Z,9.20
2018-01-24T05:11:30.042Z,9.20
2018-01-24T05:13:57.592Z,9.20
2018-01-24T05:16:25.088Z,9.20
2018-01-24T05:18:52.652Z,9.20
2018-01-24T05:21:21.092Z,9.20
2018-01-24T05:23:48.611Z,9.10
2018-01-24T05:26:16.170Z,9.10
2018-01-24T05:28:43.666Z,9.10
2018-01-24T05:31:11.204Z,9.10
2018-01-24T05:33:38.705Z,9.10
2018-01-24T05:36:07.009Z,9.00
2018-01-24T05:38:35.268Z,9.00
2018-01-24T05:41:03.543Z,8.90
2018-01-24T05:43:31.832Z,9.00
2018-01-24T05:45:59.343Z,8.90
2018-01-24T05:48:26.878Z,8.90
2018-01-24T05:50:54.380Z,8.90
2018-01-24T05:53:22.651Z,8.80
2018-01-24T05:55:50.216Z,8.80
2018-01-24T05:58:18.493Z,8.70
2018-01-24T06:00:46.800Z,8.70
2018-01-24T06:03:14.297Z,8.70
2018-01-24T06:05:41.824Z,8.70
2018-01-24T06:08:09.357Z,8.70
2018-01-24T06:10:37.618Z,8.70
2018-01-24T06:13:05.910Z,8.70
2018-01-24T06:15:34.181Z,8.60
2018-01-24T06:18:02.470Z,8.60
2018-01-24T06:20:30.010Z,8.70
2018-01-24T06:22:58.286Z,8.60
2018-01-24T06:25:26.699Z,8.60
2018-01-24T06:27:54.217Z,8.50
2018-01-24T06:30:23.109Z,8.60
2018-01-24T06:32:51.403Z,8.60
2018-01-24T06:35:18.926Z,8.60
2018-01-24T06:37:46.467Z,8.60
2018-01-24T06:40:14.020Z,8.60
2018-01-24T06:42:41.535Z,8.60
2018-01-24T06:45:09.060Z,8.60
2018-01-24T06:47:36.659Z,8.60
2018-01-24T06:50:04.216Z,8.60
2018-01-24T06:52:32.640Z,8.60
2018-01-24T06:55:00.166Z,8.60
2018-01-24T06:57:27.663Z,8.60
2018-01-24T06:59:55.192Z,8.70
2018-01-24T07:02:22.752Z,8.70
2018-01-24T07:04:50.276Z,8.70
2018-01-24T07:07:18.552Z,8.70
2018-01-24T07:09:46.855Z,8.70
2018-01-24T07:12:26.403Z,8.70
2018-01-24T07:14:53.927Z,8.70
2018-01-24T07:17:22.195Z,8.70
2018-01-24T07:19:49.728Z,8.70
2018-01-24T07:22:17.218Z,8.80
2018-01-24T07:24:45.497Z,8.80
2018-01-24T07:27:13.778Z,8.90
2018-01-24T07:29:42.044Z,8.90
2018-01-24T07:32:10.336Z,8.90
2018-01-24T07:34:37.851Z,8.80
2018-01-24T07:37:05.380Z,8.90
2018-01-24T07:39:32.917Z,8.90
2018-01-24T07:42:00.602Z,8.90
2018-01-24T07:44:28.139Z,8.90
2018-01-24T07:46:55.652Z,9.00
2018-01-24T07:49:23.155Z,9.00
2018-01-24T07:51:50.718Z,9.10
2018-01-24T07:54:18.229Z,9.10
2018-01-24T07:56:45.763Z,9.10
2018-01-24T07:59:13.272Z,9.10
2018-01-24T08:01:41.585Z,9.20
2018-01-24T08:04:09.122Z,9.20
2018-01-24T08:06:37.435Z,9.20
2018-01-24T08:09:04.936Z,9.20
2018-01-24T08:11:32.503Z,9.30
2018-01-24T08:14:00.782Z,9.50
2018-01-24T08:16:29.071Z,9.50
2018-01-24T08:18:56.586Z,9.50
2018-01-24T08:21:30.224Z,9.50
2018-01-24T08:23:58.510Z,9.80
2018-01-24T08:26:26.050Z,9.70
2018-01-24T08:28:54.343Z,9.90
2018-01-24T08:31:21.834Z,9.80
2018-01-24T08:33:49.358Z,9.90
2018-01-24T08:36:16.950Z,10.00
2018-01-24T08:38:45.439Z,10.10
2018-01-24T08:41:13.031Z,10.10
2018-01-24T08:43:40.578Z,10.10
2018-01-24T08:46:08.086Z,10.20
2018-01-24T08:48:35.606Z,10.30
2018-01-24T08:51:03.132Z,10.30
2018-01-24T08:53:30.668Z,10.40
2018-01-24T08:55:58.168Z,10.40
2018-01-24T08:58:25.723Z,10.40
2018-01-24T09:00:53.219Z,10.60
2018-01-24T09:03:22.152Z,10.60
2018-01-24T09:05:49.685Z,10.60
2018-01-24T09:08:17.296Z,10.70
2018-01-24T09:10:44.808Z,10.80
2018-01-24T09:13:12.342Z,10.80
2018-01-24T09:15:40.666Z,10.90
2018-01-24T09:18:08.160Z,10.80
2018-01-24T09:20:35.698Z,11.00
2018-01-24T09:23:03.219Z,11.10
2018-01-24T09:25:30.821Z,11.20
2018-01-24T09:27:58.322Z,11.20
2018-01-24T09:30:25.868Z,11.20
2018-01-24T09:32:53.465Z,11.30
2018-01-24T09:35:21.003Z,11.30
2018-01-24T09:37:48.548Z,11.30
2018-01-24T09:40:17.020Z,11.30
2018-01-24T09:42:44.537Z,11.30
2018-01-24T09:45:12.288Z,11.30
2018-01-24T09:47:39.822Z,11.30
2018-01-24T09:50:08.089Z,11.30
2018-01-24T09:52:36.453Z,11.40
2018-01-24T09:55:04.737Z,11.50
2018-01-24T09:57:33.024Z,11.70
2018-01-24T10:00:01.327Z,11.70
2018-01-24T10:02:28.860Z,11.70
2018-01-24T10:04:57.158Z,11.70
2018-01-24T10:07:24.659Z,11.70
2018-01-24T10:09:52.217Z,11.70
2018-01-24T10:12:19.725Z,11.80
2018-01-24T10:14:47.212Z,11.90
2018-01-24T10:17:14.737Z,11.90
2018-01-24T10:19:42.252Z,12.00
2018-01-24T10:22:09.792Z,12.20
2018-01-24T10:24:37.299Z,12.30
2018-01-24T10:27:05.602Z,12.50
2018-01-24T10:29:33.095Z,12.40
2018-01-24T10:32:00.620Z,12.50
2018-01-24T10:34:28.148Z,12.60
2018-01-24T10:36:56.422Z,12.70
2018-01-24T10:39:24.724Z,12.70
2018-01-24T10:41:52.239Z,12.70
2018-01-24T10:44:19.753Z,12.90
2018-01-24T10:46:47.269Z,12.90
2018-01-24T10:49:14.810Z,13.00
2018-01-24T10:51:42.327Z,13.10
2018-01-24T10:54:09.832Z,13.10
2018-01-24T10:56:37.372Z,13.00
2018-01-24T10:59:04.871Z,13.20
2018-01-24T11:01:33.179Z,13.20
2018-01-24T11:04:00.723Z,13.20
2018-01-24T11:06:28.234Z,13.20
2018-01-24T11:08:55.759Z,13.00
2018-01-24T11:11:23.289Z,13.00
2018-01-24T11:13:51.551Z,13.20
2018-01-24T11:16:19.853Z,13.30
2018-01-24T11:18:47.377Z,13.30
2018-01-24T11:21:14.896Z,13.30
2018-01-24T11:23:42.449Z,13.40
2018-01-24T11:26:09.972Z,13.50
2018-01-24T11:28:38.253Z,13.80
2018-01-24T11:31:06.612Z,13.80
2018-01-24T11:33:34.147Z,13.80
2018-01-24T11:36:01.713Z,13.70
2018-01-24T11:38:29.238Z,13.80
2018-01-24T11:40:56.792Z,14.00
2018-01-24T11:43:24.308Z,14.20
2018-01-24T11:45:52.653Z,14.60
2018-01-24T11:48:20.190Z,14.60
2018-01-24T11:50:47.719Z,14.40
2018-01-24T11:53:16.005Z,14.00
2018-01-24T11:55:43.569Z,14.00
2018-01-24T11:58:11.091Z,13.90
2018-01-24T12:00:38.610Z,13.70
2018-01-24T12:03:06.147Z,13.70
2018-01-24T12:05:33.652Z,13.50
2018-01-24T12:08:01.190Z,13.60
2018-01-24T12:10:28.692Z,13.80
2018-01-24T12:12:56.960Z,13.80
2018-01-24T12:15:24.497Z,13.80
2018-01-24T12:17:52.005Z,13.70
2018-01-24T12:20:19.563Z,13.70
2018-01-24T12:22:47.956Z,13.80
2018-01-24T12:25:15.471Z,13.80
2018-01-24T12:27:43.884Z,13.80
2018-01-24T12:30:11.409Z,13.80
2018-01-24T12:32:38.931Z,13.80
2018-01-24T12:35:06.428Z,13.90
2018-01-24T12:37:33.975Z,14.10
2018-01-24T12:40:02.742Z,14.20
2018-01-24T12:42:30.288Z,14.20
2018-01-24T12:44:57.785Z,14.20
2018-01-24T12:47:25.312Z,14.10
2018-01-24T12:49:52.840Z,14.30
2018-01-24T12:52:20.352Z,14.40
2018-01-24T12:54:47.887Z,14.50
2018-01-24T12:57:15.391Z,14.40
2018-01-24T12:59:43.710Z,14.10
2018-01-24T13:02:11.236Z,14.00
2018-01-24T13:04:39.552Z,14.00
2018-01-24T13:07:07.072Z,14.00
2018-01-24T13:09:35.355Z,14.10
2018-01-24T13:12:02.894Z,14.10
2018-01-24T13:14:30.430Z,13.90
2018-01-24T13:16:57.968Z,13.90
2018-01-24T13:19:25.479Z,14.10
2018-01-24T13:21:53.778Z,14.20
2018-01-24T13:24:21.319Z,14.10
2018-01-24T13:26:49.620Z,14.50
2018-01-24T13:29:17.160Z,14.40
2018-01-24T13:31:45.447Z,14.30
2018-01-24T13:34:22.656Z,14.20
2018-01-24T13:36:51.580Z,14.30
2018-01-24T13:39:19.134Z,14.40
2018-01-24T13:41:46.699Z,14.40
2018-01-24T13:44:14.223Z,14.60
2018-01-24T13:46:41.740Z,14.80
2018-01-24T13:49:10.032Z,14.30
2018-01-24T13:51:37.584Z,14.30
2018-01-24T13:54:05.103Z,14.40
2018-01-24T13:56:32.631Z,14.50
2018-01-24T13:59:00.164Z,14.40
2018-01-24T14:01:27.674Z,14.40
2018-01-24T14:03:55.723Z,14.30
2018-01-24T14:09:03.835Z,14.20
2018-01-24T14:11:31.551Z,14.10
2018-01-24T14:13:59.058Z,14.20
2018-01-24T14:16:26.590Z,14.20
2018-01-24T14:18:54.880Z,14.30
2018-01-24T14:21:22.592Z,14.30
2018-01-24T14:23:50.424Z,14.20
2018-01-24T14:26:17.935Z,14.20
2018-01-24T14:28:45.447Z,14.20
2018-01-24T14:31:12.960Z,14.10
2018-01-24T14:33:41.273Z,14.10
2018-01-24T14:36:08.784Z,14.00
2018-01-24T14:38:36.335Z,14.20
2018-01-24T14:41:04.060Z,14.00
2018-01-24T14:43:31.591Z,14.00
2018-01-24T14:45:59.096Z,14.00
2018-01-24T14:48:29.216Z,14.00
2018-01-24T14:50:56.747Z,13.90
2018-01-24T14:53:24.255Z,14.00
2018-01-24T14:55:51.772Z,13.80
2018-01-24T14:58:19.295Z,13.90
2018-01-24T15:00:47.599Z,13.70
2018-01-24T15:03:15.103Z,13.70
2018-01-24T15:05:42.625Z,13.70
2018-01-24T15:08:10.147Z,13.80
2018-01-24T15:10:38.411Z,13.70
2018-01-24T15:13:05.943Z,13.60
2018-01-24T15:15:33.451Z,13.70
2018-01-24T15:18:01.003Z,13.60
2018-01-24T15:20:28.550Z,13.50
2018-01-24T15:22:56.853Z,13.30
2018-01-24T15:25:24.432Z,13.40
2018-01-24T15:27:51.927Z,13.30
2018-01-24T15:30:19.440Z,13.20
2018-01-24T15:32:46.976Z,13.10
2018-01-24T15:35:14.500Z,12.90
2018-01-24T15:37:42.073Z,12.90
2018-01-24T15:40:09.587Z,12.80
2018-01-24T15:42:37.096Z,12.70
2018-01-24T15:45:05.395Z,12.50
2018-01-24T15:47:32.919Z,12.50
2018-01-24T15:50:00.437Z,12.40
2018-01-24T15:52:27.944Z,12.40
2018-01-24T15:54:56.233Z,12.30
2018-01-24T15:57:24.550Z,12.30
2018-01-24T15:59:52.917Z,12.30
2018-01-24T16:02:20.446Z,12.30
2018-01-24T16:04:48.829Z,12.10
2018-01-24T16:07:16.952Z,12.10
2018-01-24T16:09:45.188Z,12.20
2018-01-24T16:12:12.751Z,12.10
2018-01-24T16:14:40.361Z,12.00
2018-01-24T16:17:08.051Z,12.00
2018-01-24T16:19:36.328Z,11.90
2018-01-24T16:22:03.868Z,11.80
2018-01-24T16:24:31.410Z,11.70
2018-01-24T16:26:58.909Z,11.60
2018-01-24T16:29:27.191Z,11.50
2018-01-24T16:31:54.721Z,11.50
2018-01-24T16:34:22.242Z,11.40
2018-01-24T16:36:49.786Z,11.40
2018-01-24T16:39:17.339Z,11.20
2018-01-24T16:41:45.644Z,11.00
2018-01-24T16:44:13.180Z,11.00
2018-01-24T16:46:40.725Z,11.00
2018-01-24T16:49:08.246Z,10.80
2018-01-24T16:51:35.782Z,10.70
2018-01-24T16:54:03.334Z,10.70
2018-01-24T16:56:30.870Z,10.60
2018-01-24T16:58:58.388Z,10.60
2018-01-24T17:01:26.702Z,10.60
2018-01-24T17:03:54.208Z,10.60
2018-01-24T17:06:21.752Z,10.60
2018-01-24T17:08:49.338Z,10.60
2018-01-24T17:11:17.655Z,10.60
2018-01-24T17:13:45.194Z,10.60
2018-01-24T17:16:13.499Z,10.50
2018-01-24T17:18:40.992Z,10.50
2018-01-24T17:21:09.278Z,10.60
2018-01-24T17:23:40.498Z,10.50
2018-01-24T17:26:08.080Z,10.50
2018-01-24T17:28:35.660Z,10.50
2018-01-24T17:31:03.965Z,10.50
2018-01-24T17:33:31.509Z,10.50
2018-01-24T17:35:59.172Z,10.50
2018-01-24T17:38:27.453Z,10.40
2018-01-24T17:40:54.973Z,10.40
2018-01-24T17:43:22.505Z,10.40
2018-01-24T17:45:50.008Z,10.40
2018-01-24T17:48:18.929Z,10.30
2018-01-24T17:50:46.471Z,10.30
2018-01-24T17:53:14.755Z,10.20
2018-01-24T17:55:42.300Z,10.20
2018-01-24T17:58:10.613Z,10.20
2018-01-24T18:00:38.145Z,10.20
2018-01-24T18:03:06.419Z,10.10
2018-01-24T18:05:33.946Z,10.10
2018-01-24T18:08:01.467Z,10.10
2018-01-24T18:10:28.999Z,10.00
2018-01-24T18:12:56.541Z,10.00
2018-01-24T18:15:24.864Z,10.00
2018-01-24T18:17:52.379Z,10.00
2018-01-24T18:20:19.904Z,9.90
2018-01-24T18:22:47.454Z,9.90
2018-01-24T18:25:14.976Z,9.80
2018-01-24T18:27:42.530Z,9.80
2018-01-24T18:30:10.039Z,9.80
2018-01-24T18:32:37.537Z,9.70
2018-01-24T18:35:05.836Z,9.60
2018-01-24T18:37:33.436Z,9.60
2018-01-24T18:40:00.982Z,9.70
2018-01-24T18:42:28.491Z,9.60
2018-01-24T18:44:56.820Z,9.60
2018-01-24T18:47:24.355Z,9.60
2018-01-24T18:49:51.886Z,9.60
2018-01-24T18:52:20.198Z,9.50
2018-01-24T18:54:48.015Z,9.50
2018-01-24T18:57:16.431Z,9.40
2018-01-24T18:59:44.065Z,9.40
2018-01-24T19:02:11.592Z,9.50
2018-01-24T19:04:39.254Z,9.40
2018-01-24T19:07:07.386Z,9.40
2018-01-24T19:09:34.959Z,9.30
2018-01-24T19:12:02.523Z,9.30
2018-01-24T19:14:30.059Z,9.50
2018-01-24T19:16:57.766Z,9.50
2018-01-24T19:19:25.540Z,9.60
2018-01-24T19:21:53.119Z,9.60
2018-01-24T19:24:20.661Z,9.80
2018-01-24T19:26:48.307Z,10.10
2018-01-24T19:29:16.371Z,10.20
2018-01-24T19:31:43.975Z,10.30
2018-01-24T19:34:12.302Z,10.40
2018-01-24T19:36:39.844Z,10.40
2018-01-24T19:39:07.716Z,10.40
2018-01-24T19:41:35.354Z,10.50
2018-01-24T19:44:02.956Z,10.50
2018-01-24T19:46:30.508Z,10.50
2018-01-24T19:48:58.056Z,10.50
2018-01-24T19:51:25.930Z,10.50
2018-01-24T19:53:53.534Z,10.50
2018-01-24T19:56:21.050Z,10.50
2018-01-24T19:58:48.763Z,10.50
2018-01-24T20:01:17.497Z,10.80
2018-01-24T20:03:45.073Z,10.80
2018-01-24T20:06:12.611Z,11.00
2018-01-24T20:08:40.145Z,11.00
2018-01-24T20:11:08.014Z,11.10
2018-01-24T20:13:35.797Z,11.10
2018-01-24T20:16:04.188Z,11.20
2018-01-24T20:18:31.713Z,11.20
2018-01-24T20:21:00.056Z,11.20
2018-01-24T20:23:27.576Z,11.20
2018-01-24T20:39:42.518Z,11.20
2018-01-24T20:42:10.529Z,11.20
2018-01-24T20:44:38.147Z,11.30
2018-01-24T20:47:05.733Z,11.30
2018-01-24T20:49:33.367Z,11.40
2018-01-24T20:52:01.692Z,11.40
2018-01-24T20:54:29.247Z,11.30
2018-01-24T21:09:08.191Z,11.30
2018-01-24T21:11:54.221Z,11.30
2018-01-24T21:19:54.437Z,11.10
2018-01-24T21:22:22.777Z,11.00
2018-01-24T21:24:50.286Z,11.00
2018-01-24T21:27:18.675Z,10.90
2018-01-24T21:29:59.017Z,10.90
2018-01-24T21:32:39.180Z,10.70
2018-01-24T21:35:18.516Z,10.70
2018-01-24T21:37:46.566Z,10.70
2018-01-24T21:40:14.195Z,10.70
2018-01-24T21:42:41.756Z,10.70
2018-01-24T21:45:09.303Z,10.60
2018-01-24T21:47:37.282Z,10.60
2018-01-24T21:50:05.100Z,10.60
2018-01-24T21:52:32.717Z,10.60
2018-01-24T21:55:00.251Z,10.60
2018-01-24T21:57:27.993Z,10.50
2018-01-24T21:59:55.872Z,10.50
2018-01-24T22:02:24.275Z,10.40
2018-01-24T22:04:51.834Z,10.40
2018-01-24T22:07:19.377Z,10.40
2018-01-24T22:09:47.350Z,10.40
2018-01-24T22:12:15.231Z,10.40
2018-01-24T22:14:42.825Z,10.30
2018-01-24T22:17:10.360Z,10.20
2018-01-24T22:19:38.107Z,10.20
2018-01-24T22:22:05.651Z,10.10
2018-01-24T22:24:33.143Z,10.10
2018-01-24T22:27:00.679Z,10.00
2018-01-24T22:29:28.201Z,10.00
2018-01-24T22:31:56.483Z,10.00
2018-01-24T22:34:24.029Z,10.00
2018-01-24T22:36:52.315Z,10.00
2018-01-24T22:39:20.573Z,10.00
2018-01-24T22:41:48.858Z,10.00
2018-01-24T22:44:17.129Z,10.00
2018-01-24T22:46:44.664Z,10.00
2018-01-24T22:49:12.213Z,10.00
2018-01-24T22:51:39.744Z,10.00
2018-01-24T22:54:07.352Z,10.00
2018-01-24T22:56:34.867Z,10.00
2018-01-24T22:59:02.368Z,9.90
2018-01-24T23:01:29.901Z,10.00
2018-01-24T23:03:57.411Z,9.90
2018-01-24T23:06:25.679Z,9.90
2018-01-24T23:08:53.959Z,9.90
2018-01-24T23:11:22.230Z,9.90
2018-01-24T23:13:50.550Z,9.90
2018-01-24T23:16:18.080Z,9.80
2018-01-24T23:18:45.657Z,9.90
2018-01-24T23:21:13.895Z,10.10
2018-01-24T23:23:42.206Z,10.10
2018-01-24T23:26:09.728Z,10.10
2018-01-24T23:28:38.011Z,10.10
2018-01-24T23:31:06.313Z,10.20
2018-01-24T23:33:33.817Z,10.10
2018-01-24T23:36:01.326Z,10.20
2018-01-24T23:38:28.849Z,10.20
2018-01-24T23:40:56.371Z,10.10
2018-01-24T23:43:23.909Z,10.10
2018-01-24T23:45:51.425Z,10.00
2018-01-24T23:48:18.949Z,10.10
2018-01-24T23:50:46.454Z,10.10
2018-01-24T23:53:14.752Z,10.30
2018-01-24T23:55:42.299Z,10.30
2018-01-24T23:58:10.605Z,10.30
